createdAt,value
2023-11-11T00:00:02.165Z,8.31
2023-11-11T00:15:01.874Z,8.29
2023-11-11T00:30:01.601Z,8.22
2023-11-11T00:45:02.241Z,8.21
2023-11-11T01:00:01.912Z,8.15
2023-11-11T01:15:01.580Z,8.17
2023-11-11T01:30:02.204Z,8.13
2023-11-11T01:45:01.872Z,8.05
2023-11-11T02:00:02.159Z,8.05
2023-11-11T02:15:01.846Z,8.02
2023-11-11T02:30:02.475Z,7.95
2023-11-11T02:45:02.067Z,7.95
2023-11-11T03:00:01.693Z,7.94
2023-11-11T03:15:02.338Z,7.94
2023-11-11T03:30:01.970Z,7.88
2023-11-11T03:45:01.651Z,7.85
2023-11-11T04:00:02.292Z,7.86
2023-11-11T04:15:01.948Z,7.81
2023-11-11T04:30:01.610Z,7.75
2023-11-11T04:45:02.226Z,7.64
2023-11-11T05:00:01.794Z,7.52
2023-11-11T05:15:02.409Z,7.43
2023-11-11T05:30:01.756Z,7.24
2023-11-11T05:45:02.469Z,7.13
2023-11-11T06:00:02.143Z,7.04
2023-11-11T06:15:01.856Z,7
2023-11-11T06:30:02.534Z,6.83
2023-11-11T06:45:02.176Z,6.77
2023-11-11T07:00:01.790Z,6.74
2023-11-11T07:15:02.536Z,6.72
2023-11-11T07:30:02.241Z,6.68
2023-11-11T07:45:01.881Z,6.67
2023-11-11T08:00:02.527Z,6.67
2023-11-11T08:15:02.157Z,6.73
2023-11-11T08:30:01.868Z,6.8
2023-11-11T08:45:02.482Z,6.82
2023-11-11T09:00:02.161Z,6.85
2023-11-11T09:15:01.858Z,6.95
2023-11-11T09:30:02.553Z,6.97
2023-11-11T10:00:01.790Z,7.29
2023-11-11T10:15:02.445Z,7.37
2023-11-11T10:30:02.129Z,7.36
2023-11-11T10:45:01.769Z,7.32
2023-11-11T11:00:02.390Z,7.33
2023-11-11T11:15:02.096Z,7.37
2023-11-11T11:30:04.363Z,7.4
2023-11-11T11:45:02.174Z,7.4
2023-11-11T12:00:01.755Z,7.44
2023-11-11T12:15:02.373Z,7.47
2023-11-11T12:30:02.044Z,7.47
2023-11-11T12:45:01.709Z,7.49
2023-11-11T13:00:02.564Z,7.57
2023-11-11T13:15:02.214Z,7.67
2023-11-11T13:30:01.898Z,7.82
2023-11-11T13:45:01.581Z,7.91
2023-11-11T14:00:02.193Z,7.97
2023-11-11T14:15:01.865Z,7.98
2023-11-11T14:30:01.618Z,8
2023-11-11T14:45:02.294Z,7.99
2023-11-11T15:00:01.881Z,8
2023-11-11T15:15:02.481Z,8.05
2023-11-11T15:30:02.250Z,8.05
2023-11-11T15:45:01.918Z,8.01
2023-11-11T16:00:01.589Z,8
2023-11-11T16:15:02.225Z,8.01
2023-11-11T16:30:01.876Z,7.97
2023-11-11T16:45:02.510Z,7.92
2023-11-11T17:00:02.121Z,7.89
2023-11-11T17:15:01.788Z,7.83
2023-11-11T17:30:02.437Z,7.78
2023-11-11T17:45:02.036Z,7.79
2023-11-11T18:00:01.687Z,7.74
2023-11-11T18:15:02.304Z,7.7
2023-11-11T18:30:02.031Z,7.7
2023-11-11T18:45:01.753Z,7.62
2023-11-11T19:00:02.438Z,7.58
2023-11-11T19:15:02.088Z,7.5
2023-11-11T19:30:01.853Z,7.46
2023-11-11T19:45:02.503Z,7.38
2023-11-11T20:00:02.138Z,7.32
2023-11-11T20:15:01.804Z,7.24
2023-11-11T20:30:02.504Z,7.15
2023-11-11T20:45:02.137Z,7.07
2023-11-11T21:00:01.807Z,6.96
2023-11-11T21:15:02.475Z,6.79
2023-11-11T21:30:02.140Z,6.67
2023-11-11T21:45:01.718Z,6.58
2023-11-11T22:00:02.305Z,6.46
2023-11-11T22:15:02.016Z,6.31
2023-11-11T22:30:01.637Z,6.29
2023-11-11T22:45:02.223Z,6.17
2023-11-11T23:00:01.835Z,6.02
2023-11-11T23:15:02.456Z,5.92
2023-11-11T23:30:02.130Z,5.85
2023-11-11T23:45:01.830Z,5.81
